nws-alerts: Checking more than four warning/county codes can delay the loading of your pages. You should use a cron job to get the data.
EllijayWeather Station Historical Data
Daily Summary for May 5, 2019 Units:  English    Metric   Both
Daily Weekly Monthly Yearly Custom
  High: Low: Average:
Temperature: 73.8 °F 55.6 °F 65.1 °F
Dew Point: 64.6 °F 54.1 °F 61.2 °F
Humidity: 99% 63% 88%
Wind Speed: 6.9mph 0mph 0.4mph
Wind Gust: 11mph - -
Wind- - SSW
Pressure: 29.91 in 29.67 in -
Precipitation: 0.36 in    
Historical Graphs
 
 
Tabular Data for May 5, 2019
Time Temperature Dew Point Pressure Wind Wind Speed Wind Gust Humidity Rainfall Rate (Hourly) solar
00:04 64 °F 63.1 °F 29.76 in Calm     97% 0.03 in meteobridge W/m2
00:09 64 °F 63.5 °F 29.76 in Calm     98% 0.03 in meteobridge W/m2
00:14 64 °F 63.5 °F 29.76 in Calm     98% 0.03 in meteobridge W/m2
00:19 63.9 °F 63.3 °F 29.76 in Calm     98% 0.03 in meteobridge W/m2
00:24 63.9 °F 63.3 °F 29.77 in Calm   1 mph 98% 0.04 in meteobridge W/m2
00:29 63.9 °F 63.3 °F 29.77 in Calm     98% 0.03 in meteobridge W/m2
00:34 63.7 °F 63.1 °F 29.76 in Calm     98% 0.03 in meteobridge W/m2
00:39 63.7 °F 63.1 °F 29.77 in Calm     98% 0.04 in meteobridge W/m2
00:44 63.7 °F 63.1 °F 29.76 in Calm     98% 0.04 in meteobridge W/m2
00:49 63.7 °F 63.1 °F 29.76 in Calm     98% 0.03 in meteobridge W/m2
00:54 63.5 °F 63 °F 29.76 in Calm     98% 0.04 in meteobridge W/m2
00:59 63.5 °F 63 °F 29.75 in Calm     98% 0.04 in meteobridge W/m2
01:04 63.5 °F 63 °F 29.75 in Calm     98% 0.04 in meteobridge W/m2
01:09 63.5 °F 63 °F 29.75 in Calm     98% 0.04 in meteobridge W/m2
01:14 63.3 °F 62.8 °F 29.75 in Calm     98% 0.04 in meteobridge W/m2
01:19 63.3 °F 62.8 °F 29.75 in Calm     98% 0.05 in meteobridge W/m2
01:24 63.1 °F 62.6 °F 29.75 in Calm     98% 0.04 in meteobridge W/m2
01:29 63.1 °F 62.6 °F 29.74 in Calm     98% 0.04 in meteobridge W/m2
01:34 63 °F 62.4 °F 29.74 in Calm     98% 0.04 in meteobridge W/m2
01:39 63 °F 62.4 °F 29.74 in Calm     98% 0.04 in meteobridge W/m2
01:44 62.8 °F 62.2 °F 29.74 in Calm     98% 0.04 in meteobridge W/m2
01:49 62.8 °F 62.2 °F 29.74 in Calm     98% 0.04 in meteobridge W/m2
01:54 62.8 °F 62.2 °F 29.74 in Calm     98% 0.03 in meteobridge W/m2
01:59 62.4 °F 61.9 °F 29.74 in Calm     98% 0.04 in meteobridge W/m2
02:04 62.4 °F 61.9 °F 29.74 in Calm     98% 0.04 in meteobridge W/m2
02:09 62.4 °F 61.9 °F 29.73 in Calm     98% 0.03 in meteobridge W/m2
02:14 62.4 °F 61.9 °F 29.73 in Calm     98% 0.03 in meteobridge W/m2
02:19 62.4 °F 61.9 °F 29.72 in Calm     98% 0.03 in meteobridge W/m2
02:24 62.2 °F 61.7 °F 29.72 in Calm     98% 0.03 in meteobridge W/m2
02:29 62.2 °F 61.7 °F 29.72 in Calm     98% 0.03 in meteobridge W/m2
02:34 62.2 °F 61.7 °F 29.72 in Calm     98% 0.03 in meteobridge W/m2
02:39 62.4 °F 61.9 °F 29.72 in Calm     98% 0.03 in meteobridge W/m2
02:44 62.4 °F 61.9 °F 29.72 in Calm     98% 0.03 in meteobridge W/m2
02:49 62.4 °F 61.9 °F 29.71 in Calm     98% 0.03 in meteobridge W/m2
02:54 62.4 °F 61.9 °F 29.71 in Calm     98% 0.03 in meteobridge W/m2
02:59 62.4 °F 61.9 °F 29.71 in Calm     98% 0.02 in meteobridge W/m2
03:04 62.4 °F 61.9 °F 29.71 in Calm     98% 0.02 in meteobridge W/m2
03:09 62.6 °F 62.1 °F 29.70 in Calm     98% 0.03 in meteobridge W/m2
03:14 62.4 °F 61.9 °F 29.70 in Calm     98% 0.03 in meteobridge W/m2
03:19 62.6 °F 62.1 °F 29.70 in Calm     98% 0.02 in meteobridge W/m2
03:24 62.8 °F 62.2 °F 29.70 in Calm     98% 0.02 in meteobridge W/m2
03:29 62.6 °F 62.1 °F 29.70 in East 4 mph 4 mph 98% 0.02 in meteobridge W/m2
03:34 63 °F 62.6 °F 29.70 in Calm     99% 0.03 in meteobridge W/m2
03:39 63.1 °F 62.8 °F 29.70 in Calm   1 mph 99% 0.02 in meteobridge W/m2
03:44 63.3 °F 63 °F 29.70 in Calm     99% 0.02 in meteobridge W/m2
03:49 63.3 °F 63 °F 29.69 in Calm     99% 0.02 in meteobridge W/m2
03:54 63.5 °F 63.1 °F 29.69 in Calm   1 mph 99% 0.02 in meteobridge W/m2
03:59 63.7 °F 63.3 °F 29.69 in Calm     99% 0.02 in meteobridge W/m2
04:04 63.7 °F 63.1 °F 29.69 in Calm   1 mph 98% 0.03 in meteobridge W/m2
04:09 63.7 °F 63.1 °F 29.69 in Calm     98% 0.02 in meteobridge W/m2
04:14 63.7 °F 63.1 °F 29.68 in Calm     98% 0.02 in meteobridge W/m2
04:19 63.7 °F 63.1 °F 29.68 in Calm     98% 0.02 in meteobridge W/m2
04:24 63.9 °F 63.3 °F 29.68 in Calm     98% 0.02 in meteobridge W/m2
04:29 63.9 °F 63.3 °F 29.68 in Calm     98% 0.03 in meteobridge W/m2
04:34 63.7 °F 63.1 °F 29.68 in Calm     98% 0.02 in meteobridge W/m2
04:39 63.7 °F 63.1 °F 29.68 in Calm     98% 0.02 in meteobridge W/m2
04:44 63.7 °F 63.1 °F 29.68 in Calm     98% 0.02 in meteobridge W/m2
04:49 63.7 °F 63.1 °F 29.68 in Calm     98% 0.03 in meteobridge W/m2
04:54 63.7 °F 63.1 °F 29.68 in Calm   3 mph 98% 0.03 in meteobridge W/m2
04:59 63.7 °F 63.1 °F 29.68 in Calm     98% 0.03 in meteobridge W/m2
05:04 63.7 °F 63.1 °F 29.68 in Calm     98% 0.02 in meteobridge W/m2
05:09 63.7 °F 63.1 °F 29.67 in NNE 0.9 mph 1 mph 98% 0.02 in meteobridge W/m2
05:14 63.7 °F 63.1 °F 29.67 in Calm     98% 0.03 in meteobridge W/m2
05:19 63.7 °F 63.1 °F 29.67 in Calm   1 mph 98% 0.03 in meteobridge W/m2
05:24 63.7 °F 63.1 °F 29.67 in Calm     98% 0.03 in meteobridge W/m2
05:29 63.7 °F 63.1 °F 29.67 in Calm     98% 0.02 in meteobridge W/m2
05:34 63.7 °F 63.1 °F 29.68 in Calm     98% 0.03 in meteobridge W/m2
05:39 63.7 °F 63.1 °F 29.67 in Calm     98% 0.03 in meteobridge W/m2
05:44 63.7 °F 63.1 °F 29.67 in Calm   1 mph 98% 0.03 in meteobridge W/m2
05:49 63.7 °F 63.1 °F 29.67 in Calm   2 mph 98% 0.03 in meteobridge W/m2
05:54 63.7 °F 63.1 °F 29.67 in Calm   2 mph 98% 0.03 in meteobridge W/m2
05:59 63.7 °F 63.1 °F 29.67 in Calm   4 mph 98% 0.03 in meteobridge W/m2
06:04 63.7 °F 63.1 °F 29.67 in Calm   1 mph 98% 0.03 in meteobridge W/m2
06:09 63.7 °F 63.1 °F 29.67 in Calm     98% 0.03 in meteobridge W/m2
06:14 63.9 °F 63.3 °F 29.68 in Calm   3 mph 98% 0.02 in meteobridge W/m2
06:19 63.9 °F 63.3 °F 29.68 in Calm     98% 0.03 in meteobridge W/m2
06:24 63.9 °F 63.3 °F 29.68 in Calm   2 mph 98% 0.03 in meteobridge W/m2
06:29 63.9 °F 63.3 °F 29.69 in Calm     98% 0.03 in meteobridge W/m2
06:34 63.7 °F 63.1 °F 29.69 in Calm     98% 0.02 in meteobridge W/m2
06:39 63.7 °F 63.1 °F 29.69 in Calm     98% 0.02 in meteobridge W/m2
06:44 63.5 °F 63 °F 29.69 in Calm     98% 0.03 in meteobridge W/m2
06:49 63.3 °F 62.8 °F 29.69 in Calm   2 mph 98% 0.03 in meteobridge W/m2
06:54 63.3 °F 62.8 °F 29.69 in Calm     98% 0.02 in meteobridge W/m2
06:59 63.1 °F 62.6 °F 29.69 in Calm     98% 0.02 in meteobridge W/m2
07:04 63.1 °F 62.6 °F 29.69 in Calm     98% 0.02 in meteobridge W/m2
07:09 63 °F 62.4 °F 29.70 in Calm     98% 0.02 in meteobridge W/m2
07:14 63 °F 62.4 °F 29.71 in Calm   4 mph 98% 0.03 in meteobridge W/m2
07:19 62.8 °F 62.2 °F 29.72 in Calm   4 mph 98% 0.02 in meteobridge W/m2
07:24 62.4 °F 61.5 °F 29.72 in Calm     97% 0.02 in meteobridge W/m2
07:29 62.4 °F 61.5 °F 29.73 in Calm     97% 0.02 in meteobridge W/m2
07:34 62.2 °F 61.3 °F 29.73 in Calm     97% 0.02 in meteobridge W/m2
07:39 62.1 °F 61.2 °F 29.73 in Calm   1 mph 97% 0.03 in meteobridge W/m2
07:44 62.1 °F 61.2 °F 29.74 in Calm     97% 0.02 in meteobridge W/m2
07:49 61.9 °F 61 °F 29.74 in Calm     97% 0.02 in meteobridge W/m2
07:54 61.9 °F 61.3 °F 29.74 in Calm     98% 0.02 in meteobridge W/m2
07:59 61.9 °F 61 °F 29.74 in Calm     97% 0.02 in meteobridge W/m2
08:04 61.9 °F 61.3 °F 29.75 in Calm     98% 0.02 in meteobridge W/m2
08:09 61.9 °F 61.3 °F 29.75 in Calm   3 mph 98% 0.03 in meteobridge W/m2
08:14 61.9 °F 61 °F 29.75 in Calm     97% 0.02 in meteobridge W/m2
08:19 61.9 °F 61.3 °F 29.76 in Calm     98% 0.02 in meteobridge W/m2
08:24 61.9 °F 61.3 °F 29.76 in Calm     98% 0.02 in meteobridge W/m2
08:29 62.1 °F 61.5 °F 29.76 in Calm     98% 0.02 in meteobridge W/m2
08:34 62.1 °F 61.5 °F 29.76 in Calm     98% 0.02 in meteobridge W/m2
08:39 62.1 °F 61.5 °F 29.77 in Calm     98% 0.02 in meteobridge W/m2
08:44 62.1 °F 61.5 °F 29.77 in Calm     98% 0.02 in meteobridge W/m2
08:49 62.1 °F 61.5 °F 29.77 in Calm     98% 0.02 in meteobridge W/m2
08:54 62.2 °F 61.3 °F 29.78 in Calm     97% 0.02 in meteobridge W/m2
08:59 62.2 °F 61.3 °F 29.78 in Calm     97% 0.02 in meteobridge W/m2
09:04 62.2 °F 61.3 °F 29.78 in Calm   2 mph 97% 0.02 in meteobridge W/m2
09:09 62.2 °F 61.3 °F 29.78 in Calm   1 mph 97% 0.02 in meteobridge W/m2
09:14 62.2 °F 61.3 °F 29.78 in Calm   2 mph 97% 0.01 in meteobridge W/m2
09:19 62.2 °F 61.3 °F 29.78 in NNW 2.9 mph 3 mph 97% 0.01 in meteobridge W/m2
09:24 62.2 °F 61.3 °F 29.78 in Calm   2 mph 97% 0.01 in meteobridge W/m2
09:29 62.2 °F 61.3 °F 29.78 in Calm     97% 0.01 in meteobridge W/m2
09:34 62.4 °F 61.5 °F 29.78 in Calm   1 mph 97% 0.01 in meteobridge W/m2
09:39 62.8 °F 61.9 °F 29.78 in Calm   1 mph 97% 0.01 in meteobridge W/m2
09:44 62.8 °F 61.9 °F 29.78 in Calm   1 mph 97% 0 in meteobridge W/m2
09:49 63 °F 62.1 °F 29.78 in Calm   3 mph 97% 0.01 in meteobridge W/m2
09:54 63.1 °F 62.2 °F 29.78 in Calm     97% 0.01 in meteobridge W/m2
09:59 63.1 °F 62.2 °F 29.79 in Calm   4 mph 97% 0.01 in meteobridge W/m2
10:04 63.3 °F 62.2 °F 29.79 in NNW 0.9 mph 2 mph 96% 0.01 in meteobridge W/m2
10:09 63.5 °F 62.4 °F 29.79 in NW 2 mph 3 mph 96% 0.01 in meteobridge W/m2
10:14 63.3 °F 61.9 °F 29.79 in Calm     95% 0.01 in meteobridge W/m2
10:19 63.5 °F 62.1 °F 29.79 in Calm     95% 0.01 in meteobridge W/m2
10:24 63.7 °F 62.2 °F 29.80 in NW 0.9 mph 2 mph 95% 0.01 in meteobridge W/m2
10:29 63.7 °F 61.9 °F 29.80 in Calm     94% 0.01 in meteobridge W/m2
10:34 63.7 °F 62.2 °F 29.80 in Calm     95% 0.01 in meteobridge W/m2
10:39 63.9 °F 62.4 °F 29.80 in Calm     95% 0.02 in meteobridge W/m2
10:44 63.7 °F 62.2 °F 29.80 in Calm     95% 0.02 in meteobridge W/m2
10:49 63.9 °F 62.8 °F 29.80 in Calm     96% 0.01 in meteobridge W/m2
10:54 63.9 °F 62.4 °F 29.80 in Calm   3 mph 95% 0.01 in meteobridge W/m2
10:59 64.2 °F 63.3 °F 29.80 in Calm     97% 0.01 in meteobridge W/m2
11:04 64.4 °F 63 °F 29.80 in Calm     95% 0.01 in meteobridge W/m2
11:09 64.4 °F 63 °F 29.81 in Calm     95% 0.01 in meteobridge W/m2
11:14 64.4 °F 63 °F 29.81 in Calm   5 mph 95% 0.01 in meteobridge W/m2
11:19 64.8 °F 63.3 °F 29.81 in Calm     95% 0.01 in meteobridge W/m2
11:24 64.8 °F 63 °F 29.81 in Calm   1 mph 94% 0.01 in meteobridge W/m2
11:29 64.8 °F 62.4 °F 29.81 in Calm   2 mph 92% 0.01 in meteobridge W/m2
11:34 64.9 °F 62.8 °F 29.82 in NNW 0.9 mph 2 mph 93% 0.01 in meteobridge W/m2
11:39 65.1 °F 62.8 °F 29.81 in Calm   2 mph 92% 0.01 in meteobridge W/m2
11:44 65.8 °F 63.1 °F 29.82 in Calm   2 mph 91% 0.01 in meteobridge W/m2
11:49 66.4 °F 64 °F 29.81 in Calm   2 mph 92% 0.01 in meteobridge W/m2
11:54 66.6 °F 63.1 °F 29.81 in Calm     89% 0.01 in meteobridge W/m2
11:59 66.9 °F 63.5 °F 29.81 in Calm     89% 0.01 in meteobridge W/m2
12:04 67.1 °F 63.5 °F 29.81 in Calm   3 mph 88% 0.01 in meteobridge W/m2
12:09 67.3 °F 64.6 °F 29.82 in Calm     91% 0.01 in meteobridge W/m2
12:14 67.3 °F 63.9 °F 29.82 in NE 4.9 mph 5 mph 89% 0.01 in meteobridge W/m2
12:19 67.5 °F 63.9 °F 29.82 in West 0.9 mph 3 mph 88% 0.01 in meteobridge W/m2
12:24 67.5 °F 63.5 °F 29.82 in Calm   1 mph 87% 0.01 in meteobridge W/m2
12:29 67.3 °F 63.3 °F 29.82 in Calm   4 mph 87% 0.02 in meteobridge W/m2
12:34 67.3 °F 63.7 °F 29.82 in Calm   3 mph 88% 0.02 in meteobridge W/m2
12:39 67.1 °F 63.1 °F 29.82 in Calm   4 mph 87% 0.01 in meteobridge W/m2
12:44 67.1 °F 62.8 °F 29.83 in Calm   2 mph 86% 0.01 in meteobridge W/m2
12:49 67.6 °F 63.3 °F 29.82 in NW 2.9 mph 5 mph 86% 0.01 in meteobridge W/m2
12:54 68.2 °F 63.5 °F 29.82 in Calm   4 mph 85% 0.01 in meteobridge W/m2
12:59 68.7 °F 63.3 °F 29.82 in NW 4.9 mph 6 mph 83% 0.01 in meteobridge W/m2
13:04 69.3 °F 63.1 °F 29.82 in Calm   4 mph 81% 0.01 in meteobridge W/m2
13:09 69.8 °F 62.6 °F 29.82 in Calm   4 mph 78% 0.01 in meteobridge W/m2
13:14 70.2 °F 63.7 °F 29.82 in Calm   5 mph 80% 0.01 in meteobridge W/m2
13:19 70.2 °F 62.6 °F 29.82 in Calm   3 mph 77% 0.02 in meteobridge W/m2
13:24 70.3 °F 63.1 °F 29.82 in Calm   1 mph 78% 0.02 in meteobridge W/m2
13:29 70.9 °F 63.3 °F 29.82 in WNW 2 mph 3 mph 77% 0.01 in meteobridge W/m2
13:34 71.1 °F 63.5 °F 29.82 in North 0.9 mph 2 mph 77% 0.01 in meteobridge W/m2
13:39 71.2 °F 63 °F 29.82 in Calm   4 mph 75% 0.01 in meteobridge W/m2
13:44 71.4 °F 62.8 °F 29.82 in West 0.9 mph 4 mph 74% 0.01 in meteobridge W/m2
13:49 71.6 °F 63 °F 29.81 in WSW 2 mph 7 mph 74% 0.02 in meteobridge W/m2
13:54 72 °F 63.1 °F 29.81 in NNE 4.9 mph 6 mph 74% 0.02 in meteobridge W/m2
13:59 72 °F 61.2 °F 29.82 in Calm   7 mph 69% 0.02 in meteobridge W/m2
14:04 72.1 °F 62.2 °F 29.82 in Calm   3 mph 71% 0.02 in meteobridge W/m2
14:09 72 °F 62.1 °F 29.82 in Calm   7 mph 71% 0.02 in meteobridge W/m2
14:14 72 °F 62.4 °F 29.82 in Calm   3 mph 72% 0.03 in meteobridge W/m2
14:19 72 °F 61.2 °F 29.82 in North 0.9 mph 6 mph 69% 0.02 in meteobridge W/m2
14:24 72.1 °F 61 °F 29.82 in NW 0.9 mph 3 mph 68% 0.02 in meteobridge W/m2
14:29 72.1 °F 61.9 °F 29.82 in Calm   8 mph 70% 0.02 in meteobridge W/m2
14:34 72.1 °F 61.3 °F 29.82 in Calm   3 mph 69% 0.02 in meteobridge W/m2
14:39 72.1 °F 61 °F 29.81 in Calm   4 mph 68% 0.02 in meteobridge W/m2
14:44 72.1 °F 63 °F 29.81 in East 0.9 mph 1 mph 73% 0.02 in meteobridge W/m2
14:49 72.3 °F 62.1 °F 29.81 in SSW 2 mph 4 mph 70% 0.01 in meteobridge W/m2
14:54 72.7 °F 61.5 °F 29.81 in WNW 4 mph 5 mph 68% 0.01 in meteobridge W/m2
14:59 72.9 °F 61.3 °F 29.80 in Calm   4 mph 67% 0.02 in meteobridge W/m2
15:04 72.9 °F 60.8 °F 29.80 in NE 2 mph 7 mph 66% 0.02 in meteobridge W/m2
15:09 73 °F 60.6 °F 29.80 in Calm   3 mph 65% 0.02 in meteobridge W/m2
15:14 73.2 °F 60.3 °F 29.80 in NNE 0.9 mph 7 mph 64% 0.01 in meteobridge W/m2
15:19 73.2 °F 60.3 °F 29.80 in NNE 2 mph 7 mph 64% 0.01 in meteobridge W/m2
15:24 73.2 °F 60.3 °F 29.81 in Calm   3 mph 64% 0.01 in meteobridge W/m2
15:29 73 °F 61.5 °F 29.80 in Calm     67% 0.01 in meteobridge W/m2
15:34 73 °F 60.6 °F 29.81 in Calm   5 mph 65% 0.01 in meteobridge W/m2
15:39 73.2 °F 60.3 °F 29.81 in Calm   6 mph 64% 0.01 in meteobridge W/m2
15:44 73.2 °F 60.8 °F 29.81 in NW 4 mph 6 mph 65% 0.01 in meteobridge W/m2
15:49 73.2 °F 60.8 °F 29.80 in West 4 mph 5 mph 65% 0.01 in meteobridge W/m2
15:54 73.4 °F 60.4 °F 29.80 in Calm   2 mph 64% 0.02 in meteobridge W/m2
15:59 73.6 °F 61.5 °F 29.80 in SE 0.9 mph 4 mph 66% 0.01 in meteobridge W/m2
16:04 73.4 °F 61 °F 29.80 in North 0.9 mph 7 mph 65% 0.01 in meteobridge W/m2
16:09 73.2 °F 60.8 °F 29.81 in Calm   3 mph 65% 0.01 in meteobridge W/m2
16:14 73.2 °F 60.8 °F 29.81 in NNE 0.9 mph 4 mph 65% 0.01 in meteobridge W/m2
16:19 73.2 °F 60.8 °F 29.81 in Calm   1 mph 65% 0.01 in meteobridge W/m2
16:24 73.2 °F 59.9 °F 29.81 in North 4.9 mph 5 mph 63% 0.01 in meteobridge W/m2
16:29 73.6 °F 61.2 °F 29.81 in NNE 0.9 mph 2 mph 65% 0.01 in meteobridge W/m2
16:34 73.8 °F 61.3 °F 29.81 in Calm   4 mph 65% 0.01 in meteobridge W/m2
16:39 73.6 °F 61.9 °F 29.81 in Calm   5 mph 67% 0.01 in meteobridge W/m2
16:44 73.6 °F 62.4 °F 29.81 in Calm   5 mph 68% 0.01 in meteobridge W/m2
16:49 73 °F 61 °F 29.81 in Calm   2 mph 66% 0.01 in meteobridge W/m2
16:54 73 °F 61.5 °F 29.81 in Calm   3 mph 67% 0 in meteobridge W/m2
16:59 72.7 °F 60.3 °F 29.80 in Calm   11 mph 65% 0 in meteobridge W/m2
17:04 72.7 °F 61.2 °F 29.80 in West 0.9 mph 3 mph 67% 0 in meteobridge W/m2
17:09 72.7 °F 61.2 °F 29.81 in NW 6.9 mph 9 mph 67% 0.01 in meteobridge W/m2
17:14 72.3 °F 62.1 °F 29.81 in Calm   6 mph 70% 0.01 in meteobridge W/m2
17:19 72.1 °F 61.3 °F 29.81 in Calm   6 mph 69% 0.01 in meteobridge W/m2
17:24 72.1 °F 61 °F 29.81 in Calm   5 mph 68% 0.01 in meteobridge W/m2
17:29 72 °F 60.8 °F 29.80 in NW 0.9 mph 6 mph 68% 0.01 in meteobridge W/m2
17:34 71.8 °F 61.9 °F 29.81 in Calm   5 mph 71% 0.01 in meteobridge W/m2
17:39 71.8 °F 62.2 °F 29.81 in Calm     72% 0.01 in meteobridge W/m2
17:44 71.4 °F 61.9 °F 29.81 in NNW 0.9 mph 2 mph 72% 0.01 in meteobridge W/m2
17:49 71.4 °F 61.2 °F 29.82 in SSE 2 mph 2 mph 70% 0.01 in meteobridge W/m2
17:54 71.2 °F 60.6 °F 29.82 in NW 4.9 mph 10 mph 69% 0.01 in meteobridge W/m2
17:59 71.1 °F 60.4 °F 29.82 in WNW 0.9 mph 6 mph 69% 0.01 in meteobridge W/m2
18:04 70.9 °F 60.3 °F 29.82 in WNW 0.9 mph 6 mph 69% 0.01 in meteobridge W/m2
18:09 70.9 °F 61 °F 29.82 in Calm   3 mph 71% 0 in meteobridge W/m2
18:14 70.5 °F 59.9 °F 29.82 in North 4 mph 4 mph 69% 0 in meteobridge W/m2
18:19 70.3 °F 59.7 °F 29.83 in North 4 mph 6 mph 69% 0 in meteobridge W/m2
18:24 70 °F 60.1 °F 29.83 in Calm   5 mph 71% 0 in meteobridge W/m2
18:29 69.6 °F 59.4 °F 29.83 in West 2 mph 5 mph 70% 0 in meteobridge W/m2
18:34 69.3 °F 59.9 °F 29.83 in North 2 mph 3 mph 72% 0.01 in meteobridge W/m2
18:39 69.1 °F 60.4 °F 29.83 in Calm   3 mph 74% 0.01 in meteobridge W/m2
18:44 68.9 °F 59.5 °F 29.84 in Calm   1 mph 72% 0.01 in meteobridge W/m2
18:49 68.5 °F 59.5 °F 29.84 in SSW 0.9 mph 1 mph 73% 0.01 in meteobridge W/m2
18:54 68.4 °F 59.7 °F 29.84 in Calm   2 mph 74% 0.01 in meteobridge W/m2
18:59 68.2 °F 60.3 °F 29.84 in Calm   1 mph 76% 0.01 in meteobridge W/m2
19:04 67.8 °F 59.2 °F 29.84 in Calm   4 mph 74% 0.01 in meteobridge W/m2
19:09 67.6 °F 59.4 °F 29.84 in Calm   2 mph 75% 0.01 in meteobridge W/m2
19:14 67.5 °F 59.2 °F 29.84 in Calm   2 mph 75% 0.01 in meteobridge W/m2
19:19 67.3 °F 59.5 °F 29.84 in NW 2 mph 3 mph 76% 0.01 in meteobridge W/m2
19:24 66.9 °F 59.5 °F 29.84 in NW 4 mph 4 mph 77% 0.01 in meteobridge W/m2
19:29 66.7 °F 59.4 °F 29.84 in Calm     77% 0.01 in meteobridge W/m2
19:34 66.4 °F 59.4 °F 29.84 in Calm   2 mph 78% 0 in meteobridge W/m2
19:39 66 °F 59 °F 29.84 in Calm   1 mph 78% 0 in meteobridge W/m2
19:44 65.8 °F 58.8 °F 29.84 in Calm   2 mph 78% 0 in meteobridge W/m2
19:49 65.7 °F 59 °F 29.84 in Calm     79% 0 in meteobridge W/m2
19:54 65.5 °F 59.5 °F 29.85 in Calm   1 mph 81% 0 in meteobridge W/m2
19:59 65.3 °F 59 °F 29.84 in Calm     80% 0 in meteobridge W/m2
20:04 65.1 °F 58.8 °F 29.85 in Calm   3 mph 80% 0 in meteobridge W/m2
20:09 64.9 °F 58.6 °F 29.85 in Calm     80% 0 in meteobridge W/m2
20:14 64.8 °F 58.8 °F 29.85 in Calm     81% 0 in meteobridge W/m2
20:19 64.6 °F 59.4 °F 29.85 in Calm     83% 0 in meteobridge W/m2
20:24 64.2 °F 59 °F 29.86 in Calm     83% 0 in meteobridge W/m2
20:29 63.9 °F 58.6 °F 29.86 in Calm     83% 0 in meteobridge W/m2
20:34 63.7 °F 58.8 °F 29.87 in Calm     84% 0 in meteobridge W/m2
20:39 63.3 °F 58.5 °F 29.87 in Calm     84% 0 in meteobridge W/m2
20:44 63 °F 58.5 °F 29.87 in Calm     85% 0 in meteobridge W/m2
20:49 62.8 °F 58.3 °F 29.87 in Calm     85% 0 in meteobridge W/m2
20:54 62.4 °F 58.1 °F 29.87 in Calm     86% 0 in meteobridge W/m2
20:59 62.2 °F 58.3 °F 29.87 in Calm     87% 0 in meteobridge W/m2
21:04 61.9 °F 58.3 °F 29.87 in Calm     88% 0 in meteobridge W/m2
21:09 61.3 °F 58.1 °F 29.88 in Calm     89% 0 in meteobridge W/m2
21:14 61 °F 58.1 °F 29.88 in Calm   1 mph 90% 0.01 in meteobridge W/m2
21:19 60.6 °F 57.7 °F 29.88 in Calm     90% 0.01 in meteobridge W/m2
21:24 60.4 °F 57.6 °F 29.88 in Calm     90% 0.01 in meteobridge W/m2
21:29 60.3 °F 57.6 °F 29.88 in Calm     91% 0.01 in meteobridge W/m2
21:34 60.3 °F 57.6 °F 29.89 in Calm     91% 0.01 in meteobridge W/m2
21:39 60.1 °F 57.7 °F 29.89 in Calm     92% 0.01 in meteobridge W/m2
21:44 59.9 °F 57.6 °F 29.89 in Calm     92% 0.01 in meteobridge W/m2
21:49 59.7 °F 57.4 °F 29.89 in Calm     92% 0.01 in meteobridge W/m2
21:54 59.5 °F 57.6 °F 29.89 in Calm     93% 0.01 in meteobridge W/m2
21:59 59.4 °F 57.4 °F 29.89 in Calm     93% 0.01 in meteobridge W/m2
22:04 59.4 °F 57.4 °F 29.89 in Calm     93% 0.01 in meteobridge W/m2
22:09 59.2 °F 57.2 °F 29.90 in Calm     93% 0.01 in meteobridge W/m2
22:14 59.2 °F 57.2 °F 29.90 in Calm     93% 0 in meteobridge W/m2
22:19 58.8 °F 56.8 °F 29.90 in Calm     93% 0 in meteobridge W/m2
22:24 58.6 °F 56.7 °F 29.90 in Calm     93% 0 in meteobridge W/m2
22:29 58.5 °F 56.5 °F 29.90 in Calm     93% 0 in meteobridge W/m2
22:34 58.5 °F 56.5 °F 29.90 in Calm     93% 0 in meteobridge W/m2
22:39 58.3 °F 56.3 °F 29.90 in Calm     93% 0 in meteobridge W/m2
22:44 57.9 °F 56.1 °F 29.90 in Calm     94% 0 in meteobridge W/m2
22:49 57.7 °F 55.9 °F 29.90 in Calm     94% 0 in meteobridge W/m2
22:54 57.6 °F 55.8 °F 29.91 in Calm     94% 0 in meteobridge W/m2
22:59 57.4 °F 55.6 °F 29.91 in Calm     94% 0 in meteobridge W/m2
23:04 57.2 °F 55.4 °F 29.91 in Calm     94% 0 in meteobridge W/m2
23:09 57 °F 55.2 °F 29.91 in Calm     94% 0 in meteobridge W/m2
23:14 56.8 °F 55.2 °F 29.91 in Calm     94% 0 in meteobridge W/m2
23:19 56.8 °F 55.4 °F 29.91 in Calm     95% 0 in meteobridge W/m2
23:24 56.7 °F 55.2 °F 29.91 in Calm     95% 0 in meteobridge W/m2
23:29 56.5 °F 54.9 °F 29.91 in Calm     94% 0 in meteobridge W/m2
23:34 56.3 °F 54.7 °F 29.91 in Calm     94% 0 in meteobridge W/m2
23:39 56.1 °F 54.7 °F 29.91 in Calm     95% 0 in meteobridge W/m2
23:44 56.1 °F 54.7 °F 29.91 in Calm     95% 0 in meteobridge W/m2
23:49 55.9 °F 54.5 °F 29.91 in Calm     95% 0 in meteobridge W/m2
23:54 55.8 °F 54.3 °F 29.91 in Calm     95% 0 in meteobridge W/m2
23:59 55.6 °F 54.1 °F 29.91 in Calm     95% 0 in meteobridge W/m2
EllijayWeather
Compliments of Weather Underground - 2.5 mb